Time;durP1;ratioP1;P1;durP2;ratioP2;P2;SDS_P1;SDS_P2;PMS_P1;PMS_P2;Temp;Humidity;BMP_temperature;BMP_pressure;BME280_temperature;BME280_humidity;BME280_pressure;Samples;Min_cycle;Max_cycle;Signal;HPM_P1;HPM_P2
2022/03/01 00:00:28;;;;;;;11.05;8.13;;;;;;;-4.73;100.00;93975.59;2095910;28;20025;-79
2022/03/01 00:01:29;;;;;;;11.43;8.30;;;;;;;-4.88;100.00;93975.97;2094872;28;20017;-82
2022/03/01 00:02:30;;;;;;;11.40;7.78;;;;;;;-4.77;100.00;93973.91;2097387;28;20351;-82
2022/03/01 00:03:31;;;;;;;11.43;8.10;;;;;;;-4.75;100.00;93972.50;2104684;28;20023;-83
2022/03/01 00:04:32;;;;;;;10.95;7.60;;;;;;;-4.75;100.00;93969.13;2083997;28;20082;-81
2022/03/01 00:05:34;;;;;;;10.00;7.85;;;;;;;-4.86;100.00;93979.81;2104060;28;20158;-82
2022/03/01 00:06:35;;;;;;;10.60;8.23;;;;;;;-4.94;100.00;93969.34;2103182;28;20050;-81
2022/03/01 00:07:35;;;;;;;11.85;8.13;;;;;;;-4.98;100.00;93973.59;2091866;28;20017;-81
2022/03/01 00:08:36;;;;;;;11.30;8.23;;;;;;;-4.92;100.00;93970.56;2088173;28;20219;-81
2022/03/01 00:09:37;;;;;;;11.35;8.05;;;;;;;-4.83;100.00;93973.22;2093232;28;20016;-81
2022/03/01 00:10:38;;;;;;;13.00;8.27;;;;;;;-4.89;100.00;93969.22;2085580;28;20426;-79
2022/03/01 00:11:39;;;;;;;10.90;8.13;;;;;;;-4.95;100.00;93975.63;2092900;28;20392;-83
2022/03/01 00:12:40;;;;;;;12.35;7.82;;;;;;;-4.92;100.00;93972.41;2110017;28;20015;-81
2022/03/01 00:13:41;;;;;;;10.68;7.82;;;;;;;-4.77;100.00;93976.50;2099520;28;20481;-82
2022/03/01 00:14:42;;;;;;;9.73;7.80;;;;;;;-4.72;100.00;93969.31;2099908;28;20024;-79
2022/03/01 00:15:43;;;;;;;10.80;8.35;;;;;;;-4.95;100.00;93967.81;2094165;28;20024;-81
2022/03/01 00:16:44;;;;;;;11.35;8.32;;;;;;;-5.03;100.00;93969.28;2093477;28;20020;-83
2022/03/01 00:17:45;;;;;;;9.23;8.00;;;;;;;-5.10;100.00;93969.69;2097678;28;20085;-84
2022/03/01 00:18:46;;;;;;;10.77;8.23;;;;;;;-5.08;100.00;93966.78;2105206;28;20015;-81
2022/03/01 00:19:48;;;;;;;10.70;8.45;;;;;;;-5.04;100.00;93972.19;2103347;28;20024;-81
2022/03/01 00:20:49;;;;;;;13.50;8.00;;;;;;;-5.03;100.00;93965.91;2094385;28;20029;-82
2022/03/01 00:21:50;;;;;;;12.32;8.45;;;;;;;-5.12;100.00;93971.06;2093933;28;20031;-79
2022/03/01 00:22:51;;;;;;;11.23;7.32;;;;;;;-5.09;100.00;93975.69;2102528;28;20020;-81
2022/03/01 00:23:52;;;;;;;12.68;8.20;;;;;;;-5.13;100.00;93965.06;2102711;28;20142;-80
2022/03/01 00:24:53;;;;;;;12.18;7.90;;;;;;;-5.21;100.00;93973.59;2102757;28;20055;-82
2022/03/01 00:25:55;;;;;;;11.88;8.20;;;;;;;-5.20;100.00;93966.53;2096562;28;20079;-81
2022/03/01 00:26:55;;;;;;;10.95;8.13;;;;;;;-5.08;100.00;93972.78;2084717;28;20037;-82
2022/03/01 00:27:56;;;;;;;11.15;8.95;;;;;;;-5.26;100.00;93978.16;2085758;28;20563;-79
2022/03/01 00:28:57;;;;;;;10.35;7.85;;;;;;;-5.25;100.00;93969.28;2087900;28;20782;-81
2022/03/01 00:29:58;;;;;;;10.70;7.97;;;;;;;-5.25;100.00;93975.25;2086190;28;20031;-82
2022/03/01 00:30:59;;;;;;;9.88;8.05;;;;;;;-5.26;100.00;93978.94;2085145;28;20028;-82
2022/03/01 00:32:00;;;;;;;10.20;7.80;;;;;;;-5.23;100.00;93985.38;2105858;28;20660;-82
2022/03/01 00:33:01;;;;;;;11.77;8.48;;;;;;;-5.25;100.00;93975.25;2105796;28;20443;-82
2022/03/01 00:34:02;;;;;;;11.13;8.25;;;;;;;-5.26;100.00;93975.56;2086645;28;20125;-80
2022/03/01 00:35:03;;;;;;;14.38;8.80;;;;;;;-5.27;100.00;93969.56;2086678;28;20091;-80
2022/03/01 00:36:05;;;;;;;13.40;8.05;;;;;;;-5.15;100.00;93974.25;2085628;28;20079;-81
2022/03/01 00:37:06;;;;;;;13.27;8.45;;;;;;;-5.09;100.00;93975.69;2094161;28;20024;-82
2022/03/01 00:38:07;;;;;;;13.02;8.23;;;;;;;-5.07;100.00;93973.53;2094858;28;20115;-82
2022/03/01 00:39:08;;;;;;;10.65;8.07;;;;;;;-5.01;100.00;93974.94;2092917;28;20034;-82
2022/03/01 00:40:11;;;;;;;9.65;7.57;;;;;;;-4.82;100.00;93972.19;2096660;28;20016;-81
2022/03/01 00:41:12;;;;;;;13.20;7.88;;;;;;;-4.99;100.00;93972.84;2092275;28;20021;-79
2022/03/01 00:42:13;;;;;;;13.18;8.00;;;;;;;-5.12;100.00;93968.44;2112931;28;20023;-80
2022/03/01 00:43:13;;;;;;;11.05;8.55;;;;;;;-5.27;100.00;93972.16;2102962;28;20564;-80
2022/03/01 00:44:14;;;;;;;11.68;8.30;;;;;;;-5.33;100.00;93976.72;2094316;28;20028;-82
2022/03/01 00:45:15;;;;;;;9.52;7.38;;;;;;;-5.35;100.00;93980.69;2102299;28;20100;-80
2022/03/01 00:46:17;;;;;;;12.07;7.72;;;;;;;-5.26;100.00;93978.16;2102691;28;20028;-81
2022/03/01 00:47:18;;;;;;;12.95;8.20;;;;;;;-5.21;100.00;93975.44;2092134;28;20021;-79
2022/03/01 00:48:19;;;;;;;10.40;7.82;;;;;;;-5.27;100.00;93974.00;2095847;28;20024;-82
2022/03/01 00:49:20;;;;;;;12.07;8.43;;;;;;;-5.16;100.00;93964.91;2094277;28;20028;-76
2022/03/01 00:50:21;;;;;;;11.50;7.90;;;;;;;-5.27;100.00;93972.16;2094354;28;20123;-83
2022/03/01 00:51:23;;;;;;;11.65;7.95;;;;;;;-5.33;100.00;93971.50;2092182;28;20021;-79
2022/03/01 00:52:24;;;;;;;13.93;7.95;;;;;;;-5.37;100.00;93962.75;2091940;28;20029;-81
2022/03/01 00:53:25;;;;;;;11.10;7.50;;;;;;;-5.43;100.00;93965.75;2086276;28;20055;-81
2022/03/01 00:54:26;;;;;;;12.10;8.25;;;;;;;-5.44;100.00;93967.59;2101113;28;20055;-80
2022/03/01 00:55:27;;;;;;;13.00;7.88;;;;;;;-5.38;100.00;93968.25;2101446;28;20518;-80
2022/03/01 00:56:28;;;;;;;9.18;7.15;;;;;;;-5.32;100.00;93959.25;2099728;28;20085;-81
2022/03/01 00:57:29;;;;;;;10.90;8.00;;;;;;;-5.42;100.00;93959.47;2093041;28;20075;-82
2022/03/01 00:58:31;;;;;;;11.38;8.20;;;;;;;-5.51;100.00;93958.63;2102237;28;20094;-80
2022/03/01 00:59:32;;;;;;;13.52;8.52;;;;;;;-5.62;100.00;93953.66;2100676;28;20016;-81
2022/03/01 01:00:40;;;;;;;10.55;8.00;;;;;;;-5.63;100.00;93954.69;2112482;28;20348;-81
2022/03/01 01:01:41;;;;;;;11.18;7.72;;;;;;;-5.64;100.00;93965.41;2101996;28;20031;-80
2022/03/01 01:02:42;;;;;;;10.10;8.15;;;;;;;-5.73;100.00;93957.53;2092660;28;20021;-83
2022/03/01 01:03:43;;;;;;;11.32;8.02;;;;;;;-5.60;100.00;93953.34;2101593;28;20150;-81
2022/03/01 01:04:44;;;;;;;12.35;8.38;;;;;;;-5.62;100.00;93961.47;2105317;28;20024;-79
2022/03/01 01:05:45;;;;;;;11.75;7.75;;;;;;;-5.62;100.00;93958.06;2097058;28;20028;-80
2022/03/01 01:06:46;;;;;;;10.25;8.00;;;;;;;-5.59;100.00;93953.06;2091912;28;20453;-80
2022/03/01 01:07:47;;;;;;;11.18;8.13;;;;;;;-5.59;100.00;93953.06;2091020;28;20025;-79
2022/03/01 01:08:48;;;;;;;13.15;8.30;;;;;;;-5.58;100.00;93948.63;2088834;28;20111;-81
2022/03/01 01:09:49;;;;;;;11.07;8.57;;;;;;;-5.63;100.00;93953.94;2096940;28;20496;-79
2022/03/01 01:10:50;;;;;;;12.65;8.27;;;;;;;-5.62;100.00;93947.66;2093265;28;21895;-82
2022/03/01 01:11:51;;;;;;;11.45;8.18;;;;;;;-5.58;100.00;93946.00;2094983;28;20024;-82
2022/03/01 01:12:53;;;;;;;12.15;7.90;;;;;;;-5.52;100.00;93942.25;2094031;28;20081;-81
2022/03/01 01:13:54;;;;;;;11.10;8.43;;;;;;;-5.49;100.00;93948.69;2085398;28;20029;-82
2022/03/01 01:14:55;;;;;;;12.82;8.88;;;;;;;-5.62;100.00;93948.44;2085993;28;20492;-80
2022/03/01 01:15:56;;;;;;;13.57;8.60;;;;;;;-5.71;100.00;93946.81;2094110;28;20017;-81
2022/03/01 01:16:57;;;;;;;15.10;9.38;;;;;;;-5.72;100.00;93940.06;2101111;28;20028;-82
2022/03/01 01:17:58;;;;;;;11.93;8.70;;;;;;;-5.69;100.00;93947.31;2108993;28;20062;-79
2022/03/01 01:18:59;;;;;;;11.05;8.70;;;;;;;-5.64;100.00;93945.34;2093350;28;20033;-83
2022/03/01 01:20:00;;;;;;;13.77;8.98;;;;;;;-5.69;100.00;93950.69;2097230;28;20057;-81
2022/03/01 01:21:04;;;;;;;11.73;8.35;;;;;;;-5.54;100.00;93954.78;2096951;28;20693;-82
2022/03/01 01:23:24;;;;;;;14.70;8.35;;;;;;;-5.54;100.00;93949.56;2109400;27;20745;-80
2022/03/01 01:24:25;;;;;;;9.85;8.10;;;;;;;-5.48;100.00;93945.81;2105065;28;20057;-81
2022/03/01 01:25:26;;;;;;;12.43;8.30;;;;;;;-5.60;100.00;93938.50;2096908;28;20810;-81
2022/03/01 01:26:27;;;;;;;14.40;8.85;;;;;;;-5.60;100.00;93942.94;2096199;28;20411;-80
2022/03/01 01:27:28;;;;;;;10.77;8.25;;;;;;;-5.53;100.00;93948.53;2095623;28;20052;-80
2022/03/01 01:28:29;;;;;;;13.10;8.82;;;;;;;-5.57;100.00;93953.56;2111366;28;20027;-80
2022/03/01 01:29:30;;;;;;;14.10;9.35;;;;;;;-5.62;100.00;93948.44;2108355;28;20500;-80
2022/03/01 01:30:33;;;;;;;11.80;8.18;;;;;;;-5.61;100.00;93952.59;2093782;28;20020;-79
2022/03/01 01:31:34;;;;;;;11.00;8.50;;;;;;;-5.53;100.00;93955.53;2090422;28;20135;-80
2022/03/01 01:32:36;;;;;;;12.30;8.80;;;;;;;-5.48;100.00;93947.66;2086787;28;20021;-80
2022/03/01 01:33:37;;;;;;;11.40;9.05;;;;;;;-5.42;100.00;93951.66;2082410;28;20691;-81
2022/03/01 01:34:37;;;;;;;12.50;9.10;;;;;;;-5.49;100.00;93946.09;2103875;28;20035;-82
2022/03/01 01:35:38;;;;;;;14.05;8.75;;;;;;;-5.64;100.00;93953.16;2100050;28;20053;-84
2022/03/01 01:36:39;;;;;;;12.18;9.73;;;;;;;-5.68;100.00;93949.59;2083939;28;20025;-81
2022/03/01 01:37:41;;;;;;;12.90;8.38;;;;;;;-5.68;100.00;93944.41;2093707;28;20029;-81
2022/03/01 01:38:42;;;;;;;12.60;8.68;;;;;;;-5.57;100.00;93945.72;2100635;28;20089;-81
2022/03/01 01:39:43;;;;;;;9.68;7.93;;;;;;;-5.61;100.00;93942.19;2093859;28;20025;-83
2022/03/01 01:40:44;;;;;;;12.45;8.05;;;;;;;-5.55;100.00;93942.81;2086580;28;20128;-81
2022/03/01 01:41:45;;;;;;;12.10;8.93;;;;;;;-5.52;100.00;93939.66;2087111;28;20025;-82
2022/03/01 01:42:46;;;;;;;11.32;8.55;;;;;;;-5.50;100.00;93941.94;2093126;28;20033;-80
2022/03/01 01:43:47;;;;;;;12.57;8.68;;;;;;;-5.61;100.00;93947.38;2102785;28;20023;-81
2022/03/01 01:44:48;;;;;;;12.20;8.15;;;;;;;-5.69;100.00;93942.88;2102314;28;20046;-83
2022/03/01 01:45:49;;;;;;;13.13;8.45;;;;;;;-5.70;100.00;93943.16;2093188;28;20048;-83
2022/03/01 01:46:50;;;;;;;11.63;8.60;;;;;;;-5.65;100.00;93938.63;2087343;28;20029;-83
2022/03/01 01:47:52;;;;;;;11.35;8.45;;;;;;;-5.78;100.00;93943.84;2094582;28;20138;-82
2022/03/01 01:48:53;;;;;;;13.20;8.80;;;;;;;-5.82;100.00;93946.28;2110423;27;20023;-82
2022/03/01 01:49:54;;;;;;;12.70;8.82;;;;;;;-5.76;100.00;93946.94;2108486;28;20024;-79
2022/03/01 01:50:55;;;;;;;12.65;8.45;;;;;;;-5.84;100.00;93940.56;2099814;28;20024;-82
2022/03/01 01:51:56;;;;;;;12.95;8.18;;;;;;;-5.74;100.00;93939.59;2100249;28;20051;-80
2022/03/01 01:52:57;;;;;;;10.50;8.55;;;;;;;-5.77;100.00;93943.56;2102582;28;20016;-79
2022/03/01 01:53:58;;;;;;;11.25;8.25;;;;;;;-5.85;100.00;93939.03;2093878;28;20017;-82
2022/03/01 01:54:59;;;;;;;13.20;8.10;;;;;;;-5.77;100.00;93934.97;2100711;28;20410;-79
2022/03/01 01:56:00;;;;;;;11.57;8.57;;;;;;;-5.88;100.00;93942.25;2100247;28;20019;-79
2022/03/01 01:57:13;;;;;;;12.40;7.78;;;;;;;-5.70;100.00;93941.34;2084931;28;20025;-80
2022/03/01 01:58:16;;;;;;;11.10;7.90;;;;;;;-5.85;100.00;93936.44;2095478;28;20465;-81
2022/03/01 01:59:17;;;;;;;12.98;8.52;;;;;;;-5.83;100.00;93940.28;2105161;28;20031;-81
2022/03/01 02:00:18;;;;;;;10.75;8.15;;;;;;;-5.85;100.00;93932.00;2096471;28;20025;-82
2022/03/01 02:01:19;;;;;;;12.43;8.48;;;;;;;-5.80;100.00;93933.72;2086344;28;20017;-83
2022/03/01 02:02:24;;;;;;;13.52;8.10;;;;;;;-5.87;100.00;93933.38;2094003;28;20027;-80
2022/03/01 02:03:25;;;;;;;11.50;8.32;;;;;;;-5.75;100.00;93932.84;2100566;28;20047;-82
2022/03/01 02:04:28;;;;;;;9.85;7.57;;;;;;;-5.77;100.00;93937.59;2099807;28;20051;-80
2022/03/01 02:05:29;;;;;;;10.63;7.88;;;;;;;-5.98;100.00;93935.41;2100617;28;20107;-81
2022/03/01 02:06:30;;;;;;;13.00;8.35;;;;;;;-6.12;100.00;93935.44;2102825;28;20031;-80
2022/03/01 02:07:31;;;;;;;11.18;8.13;;;;;;;-6.03;100.00;93939.97;2109376;28;20399;-79
2022/03/01 02:08:33;;;;;;;13.55;9.23;;;;;;;-6.07;100.00;93934.56;2094284;28;20043;-82
2022/03/01 02:11:37;;;;;;;10.18;8.02;;;;;;;-5.97;100.00;93925.78;2142682;27;20196;-80
2022/03/01 02:12:38;;;;;;;11.82;8.05;;;;;;;-6.03;100.00;93924.34;2127091;27;20439;-81
2022/03/01 02:13:39;;;;;;;12.52;8.25;;;;;;;-6.03;100.00;93921.75;2112296;28;20061;-80
2022/03/01 02:14:40;;;;;;;10.82;8.23;;;;;;;-6.11;100.00;93923.19;2112486;28;20019;-80
2022/03/01 02:15:41;;;;;;;14.10;8.40;;;;;;;-6.08;100.00;93914.81;2112463;28;20410;-81
2022/03/01 02:16:42;;;;;;;12.10;7.97;;;;;;;-6.14;100.00;93924.56;2120660;28;20050;-81
2022/03/01 02:17:43;;;;;;;11.95;8.73;;;;;;;-6.16;100.00;93913.66;2109113;28;20020;-80
2022/03/01 02:18:45;;;;;;;12.52;8.30;;;;;;;-6.18;100.00;93918.41;2103358;28;20550;-82
2022/03/01 02:19:50;;;;;;;12.13;9.20;;;;;;;-6.24;100.00;93918.78;2106134;28;20774;-82
2022/03/01 02:20:51;;;;;;;12.40;8.50;;;;;;;-6.24;100.00;93916.94;2111594;27;20023;-81
2022/03/01 02:21:57;;;;;;;11.20;8.23;;;;;;;-6.08;100.00;93917.41;2110210;28;20062;-80
2022/03/01 02:23:01;;;;;;;9.90;7.88;;;;;;;-6.28;100.00;93918.59;2115264;28;20021;-79
2022/03/01 02:24:03;;;;;;;12.32;8.50;;;;;;;-6.33;100.00;93913.47;2102219;28;20070;-81
2022/03/01 02:25:05;;;;;;;14.77;8.88;;;;;;;-6.24;100.00;93916.19;2112522;28;20089;-79
2022/03/01 02:26:06;;;;;;;11.75;8.65;;;;;;;-6.34;100.00;93904.91;2118736;27;20086;-81
2022/03/01 02:27:07;;;;;;;10.30;7.72;;;;;;;-6.37;100.00;93920.31;2118019;28;20402;-82
2022/03/01 02:28:07;;;;;;;10.90;8.38;;;;;;;-6.32;100.00;93911.66;2110747;28;20030;-81
2022/03/01 02:29:09;;;;;;;10.73;7.90;;;;;;;-6.31;100.00;93916.59;2104131;28;20040;-81
2022/03/01 02:30:10;;;;;;;11.73;7.95;;;;;;;-6.34;100.00;93917.91;2112304;28;20020;-80
2022/03/01 02:31:11;;;;;;;12.55;8.75;;;;;;;-6.34;100.00;93919.75;2108082;27;20423;-79
2022/03/01 02:32:12;;;;;;;10.30;7.63;;;;;;;-6.24;100.00;93908.38;2112249;28;20020;-80
2022/03/01 02:33:13;;;;;;;12.38;9.02;;;;;;;-6.37;100.00;93915.88;2103858;28;20023;-81
2022/03/01 02:34:14;;;;;;;11.40;8.35;;;;;;;-6.31;100.00;93915.81;2101954;28;20027;-81
2022/03/01 02:35:16;;;;;;;11.57;7.85;;;;;;;-6.36;100.00;93909.66;2103966;28;20495;-81
2022/03/01 02:36:17;;;;;;;11.38;8.07;;;;;;;-6.34;100.00;93914.56;2112208;28;20336;-81
2022/03/01 02:37:18;;;;;;;12.48;9.13;;;;;;;-6.29;100.00;93917.03;2112181;28;20019;-79
2022/03/01 02:38:19;;;;;;;11.30;8.80;;;;;;;-6.35;100.00;93918.22;2111944;27;20107;-80
2022/03/01 02:39:20;;;;;;;12.90;8.20;;;;;;;-6.44;100.00;93912.16;2127049;27;20019;-81
2022/03/01 02:40:21;;;;;;;11.90;8.52;;;;;;;-6.38;100.00;93919.56;2126860;27;20023;-82
2022/03/01 02:41:23;;;;;;;11.77;7.95;;;;;;;-6.41;100.00;93909.75;2120550;27;20023;-82
2022/03/01 02:42:27;;;;;;;11.35;7.63;;;;;;;-6.24;100.00;93913.56;2120880;27;20047;-79
2022/03/01 02:43:30;;;;;;;13.77;8.93;;;;;;;-6.31;100.00;93919.19;2110179;28;20372;-81
2022/03/01 02:44:30;;;;;;;12.27;8.63;;;;;;;-6.42;100.00;93923.03;2112384;28;20466;-81
2022/03/01 02:45:31;;;;;;;10.43;7.60;;;;;;;-6.45;100.00;93918.38;2104959;28;20023;-81
2022/03/01 02:46:33;;;;;;;12.40;8.05;;;;;;;-6.42;100.00;93917.81;2119695;27;20098;-80
2022/03/01 02:47:34;;;;;;;12.15;7.93;;;;;;;-6.48;100.00;93914.56;2109911;28;20468;-82
2022/03/01 02:48:35;;;;;;;11.38;8.55;;;;;;;-6.63;100.00;93910.41;2097085;28;20040;-80
2022/03/01 02:49:36;;;;;;;9.63;7.50;;;;;;;-6.61;100.00;93910.88;2107777;28;20138;-81
2022/03/01 02:50:37;;;;;;;12.40;8.10;;;;;;;-6.52;100.00;93912.81;2105302;28;20025;-80
2022/03/01 02:51:39;;;;;;;12.10;7.88;;;;;;;-6.52;100.00;93912.81;2097117;28;20138;-81
2022/03/01 02:52:40;;;;;;;9.57;7.85;;;;;;;-6.47;100.00;93912.72;2111155;28;20020;-80
2022/03/01 02:53:41;;;;;;;11.48;7.68;;;;;;;-6.35;100.00;93913.00;2111557;28;20016;-81
2022/03/01 02:54:42;;;;;;;10.70;7.55;;;;;;;-6.39;100.00;93914.66;2111741;27;20504;-83
2022/03/01 02:55:43;;;;;;;9.55;7.75;;;;;;;-6.41;100.00;93909.75;2120275;28;20066;-82
2022/03/01 02:56:44;;;;;;;12.00;8.02;;;;;;;-6.53;100.00;93913.88;2117604;28;20023;-82
2022/03/01 02:57:44;;;;;;;11.57;7.78;;;;;;;-6.59;100.00;93916.56;2103582;28;20117;-83
2022/03/01 02:58:45;;;;;;;10.73;7.43;;;;;;;-6.44;100.00;93907.72;2103713;28;20043;-82
2022/03/01 02:59:46;;;;;;;10.23;7.70;;;;;;;-6.57;100.00;93911.09;2107314;27;20016;-83
2022/03/01 03:00:48;;;;;;;9.88;7.72;;;;;;;-6.55;100.00;93911.56;2105706;28;20020;-82
2022/03/01 03:01:49;;;;;;;12.02;8.13;;;;;;;-6.60;100.00;93912.44;2112247;27;20051;-81
2022/03/01 03:02:50;;;;;;;9.88;7.32;;;;;;;-6.54;100.00;93914.94;2114198;28;20511;-79
2022/03/01 03:04:00;;;;;;;10.80;7.80;;;;;;;-6.67;100.00;93906.84;2105807;28;20062;-81
2022/03/01 03:05:01;;;;;;;9.50;7.25;;;;;;;-6.64;100.00;93911.47;2111787;28;20205;-80
2022/03/01 03:06:02;;;;;;;12.60;8.27;;;;;;;-6.46;100.00;93906.44;2111799;28;20020;-80
2022/03/01 03:07:04;;;;;;;12.98;8.15;;;;;;;-6.45;100.00;93911.38;2112059;28;20020;-80
2022/03/01 03:08:05;;;;;;;8.70;7.10;;;;;;;-6.52;100.00;93908.38;2116249;27;20029;-81
2022/03/01 03:09:06;;;;;;;11.20;7.55;;;;;;;-6.47;100.00;93908.28;2107627;28;20036;-82
2022/03/01 03:10:07;;;;;;;9.45;6.93;;;;;;;-6.51;100.00;93906.56;2107434;28;20023;-81
2022/03/01 03:11:09;;;;;;;10.38;7.30;;;;;;;-6.66;100.00;93908.38;2108312;28;20044;-80
2022/03/01 03:12:10;;;;;;;9.75;7.45;;;;;;;-6.67;100.00;93914.66;2101856;28;20107;-79
2022/03/01 03:13:11;;;;;;;11.27;7.85;;;;;;;-6.70;100.00;93904.06;2104137;28;20547;-80
2022/03/01 03:14:12;;;;;;;8.45;7.18;;;;;;;-6.78;100.00;93913.28;2118198;27;20149;-82
2022/03/01 03:15:13;;;;;;;11.32;7.40;;;;;;;-6.55;100.00;93916.75;2111452;28;20495;-81
2022/03/01 03:16:14;;;;;;;10.05;7.40;;;;;;;-6.65;100.00;93907.31;2095142;28;20039;-81
2022/03/01 03:17:15;;;;;;;11.55;7.45;;;;;;;-6.65;100.00;93903.94;2099757;28;20082;-78
2022/03/01 03:18:17;;;;;;;11.77;7.72;;;;;;;-6.74;100.00;93905.69;2102861;28;20025;-79
2022/03/01 03:19:19;;;;;;;9.90;7.20;;;;;;;-6.72;100.00;93912.13;2103609;28;20027;-81
2022/03/01 03:20:21;;;;;;;11.23;8.32;;;;;;;-6.68;100.00;93915.69;2109621;28;20020;-79
2022/03/01 03:21:22;;;;;;;10.82;7.53;;;;;;;-6.69;100.00;93911.56;2104061;28;20086;-82
2022/03/01 03:22:23;;;;;;;10.32;7.47;;;;;;;-6.73;100.00;93910.59;2093312;28;20139;-81
2022/03/01 03:23:24;;;;;;;10.52;7.68;;;;;;;-6.67;100.00;93912.06;2089435;28;20032;-81
2022/03/01 03:24:26;;;;;;;11.15;8.10;;;;;;;-6.64;100.00;93918.50;2090450;28;20028;-81
2022/03/01 03:25:27;;;;;;;14.27;7.38;;;;;;;-6.70;100.00;93910.03;2100944;28;20023;-79
2022/03/01 03:26:28;;;;;;;11.63;7.45;;;;;;;-6.69;100.00;93913.38;2102054;28;20128;-81
2022/03/01 03:27:29;;;;;;;10.73;7.40;;;;;;;-6.76;100.00;93910.38;2097716;28;20386;-82
2022/03/01 03:28:31;;;;;;;12.38;7.47;;;;;;;-6.74;100.00;93903.84;2097737;28;20020;-81
2022/03/01 03:29:31;;;;;;;10.85;7.15;;;;;;;-6.72;100.00;93901.72;2114266;28;20424;-81
2022/03/01 03:30:32;;;;;;;10.60;7.50;;;;;;;-6.67;100.00;93912.06;2100094;28;20043;-79
2022/03/01 03:31:39;;;;;;;10.55;7.07;;;;;;;-6.71;100.00;93910.31;2091428;28;20013;-80
2022/03/01 03:32:40;;;;;;;8.77;6.65;;;;;;;-6.66;100.00;93910.22;2092044;28;20028;-83
2022/03/01 03:33:41;;;;;;;9.30;7.07;;;;;;;-6.76;100.00;93907.78;2088745;28;20514;-78
2022/03/01 03:34:42;;;;;;;10.40;7.05;;;;;;;-6.78;100.00;93897.69;2093089;28;20107;-78
2022/03/01 03:35:43;;;;;;;11.00;6.82;;;;;;;-6.75;100.00;93909.34;2106105;28;20047;-80
2022/03/01 03:36:44;;;;;;;10.75;7.80;;;;;;;-6.88;100.00;93908.28;2114353;28;20015;-79
2022/03/01 03:37:46;;;;;;;9.85;7.13;;;;;;;-6.92;100.00;93904.69;2103192;28;20031;-80
2022/03/01 03:38:47;;;;;;;11.68;8.27;;;;;;;-6.79;100.00;93909.16;2102071;28;20021;-79
2022/03/01 03:39:48;;;;;;;10.52;7.40;;;;;;;-6.78;100.00;93902.88;2112349;28;20498;-78
2022/03/01 03:40:49;;;;;;;9.32;6.55;;;;;;;-6.78;100.00;93905.47;2106058;28;20376;-80
2022/03/01 03:41:50;;;;;;;9.52;7.13;;;;;;;-6.85;100.00;93902.47;2103882;28;20016;-80
2022/03/01 03:42:51;;;;;;;11.43;7.07;;;;;;;-6.83;100.00;93905.56;2089294;28;20093;-81
2022/03/01 03:43:52;;;;;;;11.57;7.32;;;;;;;-6.79;100.00;93903.19;2095575;28;20524;-79
2022/03/01 03:44:55;;;;;;;13.52;7.93;;;;;;;-6.87;100.00;93899.41;2099986;28;20092;-82
2022/03/01 03:45:56;;;;;;;12.82;7.68;;;;;;;-6.99;100.00;93910.25;2091072;28;20017;-82
2022/03/01 03:46:57;;;;;;;10.43;6.72;;;;;;;-6.93;100.00;93910.97;2091514;28;20052;-80
2022/03/01 03:47:58;;;;;;;10.32;7.07;;;;;;;-6.85;100.00;93907.69;2097791;28;20026;-78
2022/03/01 03:48:59;;;;;;;12.05;8.32;;;;;;;-6.81;100.00;93906.03;2114344;28;20059;-79
2022/03/01 03:50:00;;;;;;;11.40;7.82;;;;;;;-6.94;100.00;93904.19;2114512;28;20015;-80
2022/03/01 03:51:01;;;;;;;10.93;7.45;;;;;;;-7.06;100.00;93899.47;2109609;28;20020;-81
2022/03/01 03:52:03;;;;;;;11.10;6.88;;;;;;;-7.06;100.00;93909.09;2106843;28;20020;-82
2022/03/01 03:53:04;;;;;;;9.80;7.28;;;;;;;-7.11;100.00;93908.13;2114354;28;20684;-79
2022/03/01 03:54:05;;;;;;;9.25;6.93;;;;;;;-7.04;100.00;93902.56;2120602;27;20138;-81
2022/03/01 03:55:09;;;;;;;9.80;7.05;;;;;;;-7.01;100.00;93899.41;2113973;28;20011;-80
2022/03/01 03:56:10;;;;;;;10.35;7.30;;;;;;;-7.10;100.00;93903.72;2104849;28;20979;-80
2022/03/01 03:57:11;;;;;;;10.63;7.40;;;;;;;-7.08;100.00;93908.59;2094707;28;20491;-79
2022/03/01 03:58:12;;;;;;;8.90;6.75;;;;;;;-7.11;100.00;93905.53;2088273;28;20447;-78
2022/03/01 03:59:13;;;;;;;10.00;7.22;;;;;;;-7.13;100.00;93905.03;2089367;28;20083;-80
2022/03/01 04:00:15;;;;;;;11.60;7.20;;;;;;;-7.11;100.00;93908.13;2093911;28;20028;-80
2022/03/01 04:01:16;;;;;;;10.23;6.70;;;;;;;-7.09;100.00;93902.66;2097850;28;20012;-80
2022/03/01 04:02:17;;;;;;;10.73;7.15;;;;;;;-7.14;100.00;93900.13;2105985;28;20562;-83
2022/03/01 04:03:18;;;;;;;11.13;7.03;;;;;;;-7.14;100.00;93902.72;2097710;28;20105;-80
2022/03/01 04:04:19;;;;;;;12.18;7.80;;;;;;;-7.13;100.00;93907.63;2104072;28;20085;-80
2022/03/01 04:05:20;;;;;;;11.65;7.85;;;;;;;-7.10;100.00;93901.09;2099170;28;20040;-79
2022/03/01 04:06:21;;;;;;;10.40;6.93;;;;;;;-7.20;100.00;93904.66;2103951;28;20117;-84
2022/03/01 04:07:22;;;;;;;10.40;7.05;;;;;;;-7.15;100.00;93904.56;2105946;28;20105;-81
2022/03/01 04:08:23;;;;;;;11.10;7.13;;;;;;;-7.04;100.00;93896.59;2097420;28;20185;-83
2022/03/01 04:09:24;;;;;;;10.35;7.32;;;;;;;-7.15;100.00;93898.59;2095353;28;20013;-82
2022/03/01 04:10:25;;;;;;;10.95;7.18;;;;;;;-7.08;100.00;93906.00;2087317;28;20125;-84
2022/03/01 04:11:26;;;;;;;13.15;7.22;;;;;;;-7.03;100.00;93898.91;2088990;28;20378;-82
2022/03/01 04:12:27;;;;;;;11.52;6.72;;;;;;;-7.12;100.00;93901.38;2096559;28;20020;-83
2022/03/01 04:13:28;;;;;;;9.52;7.07;;;;;;;-7.09;100.00;93897.44;2095523;28;20447;-82
2022/03/01 04:14:30;;;;;;;9.45;6.80;;;;;;;-7.07;100.00;93902.34;2105930;28;20100;-82
2022/03/01 04:15:32;;;;;;;12.07;8.07;;;;;;;-7.05;100.00;93906.22;2103438;28;20167;-82
2022/03/01 04:16:33;;;;;;;9.60;6.95;;;;;;;-6.99;100.00;93904.28;2089304;28;21144;-83
2022/03/01 04:17:35;;;;;;;9.75;7.28;;;;;;;-7.08;100.00;93904.19;2103664;28;20491;-84
2022/03/01 04:18:36;;;;;;;8.82;7.05;;;;;;;-7.16;100.00;93900.41;2112120;28;20029;-82
2022/03/01 04:19:36;;;;;;;12.93;7.60;;;;;;;-7.14;100.00;93900.13;2112140;28;20023;-83
2022/03/01 04:20:37;;;;;;;12.93;7.57;;;;;;;-7.16;100.00;93900.41;2103983;28;20024;-82
2022/03/01 04:21:39;;;;;;;11.07;7.88;;;;;;;-7.25;100.00;93907.31;2089286;28;20028;-82
2022/03/01 04:22:40;;;;;;;11.18;7.32;;;;;;;-7.31;100.00;93902.50;2087958;28;20789;-81
2022/03/01 04:23:42;;;;;;;10.27;7.15;;;;;;;-7.15;100.00;93906.41;2103362;28;20020;-82
2022/03/01 04:24:43;;;;;;;12.93;7.05;;;;;;;-7.08;100.00;93904.19;2102560;28;20016;-82
2022/03/01 04:25:44;;;;;;;12.70;7.63;;;;;;;-7.19;100.00;93898.41;2097617;28;20442;-84
2022/03/01 04:26:45;;;;;;;10.40;7.07;;;;;;;-7.23;100.00;93905.22;2102589;28;20886;-82
2022/03/01 04:27:46;;;;;;;11.95;7.75;;;;;;;-7.18;100.00;93905.13;2100353;28;20475;-81
2022/03/01 04:28:46;;;;;;;10.80;7.90;;;;;;;-7.13;100.00;93904.28;2105837;28;20071;-82
2022/03/01 04:29:47;;;;;;;9.35;7.40;;;;;;;-7.28;100.00;93900.09;2113764;28;20039;-81
2022/03/01 04:30:48;;;;;;;10.07;7.35;;;;;;;-7.29;100.00;93901.13;2091238;28;20123;-82
2022/03/01 04:31:49;;;;;;;10.07;6.82;;;;;;;-7.30;100.00;93904.78;2099244;27;20484;-81
2022/03/01 04:32:50;;;;;;;9.77;6.60;;;;;;;-7.45;100.00;93905.06;2110385;28;20086;-81
2022/03/01 04:33:54;;;;;;;9.70;7.50;;;;;;;-7.49;100.00;93896.28;2101087;28;20027;-84
2022/03/01 04:34:55;;;;;;;12.80;7.57;;;;;;;-7.51;100.00;93893.19;2095816;28;20028;-84
2022/03/01 04:36:02;;;;;;;11.07;7.25;;;;;;;-7.51;100.00;93895.78;2105804;28;20027;-83
2022/03/01 04:37:03;;;;;;;10.40;7.15;;;;;;;-7.43;100.00;93898.50;2098313;28;20016;-83
2022/03/01 04:38:04;;;;;;;11.18;7.45;;;;;;;-7.34;100.00;93898.63;2097343;28;20481;-81
2022/03/01 04:39:05;;;;;;;12.38;7.55;;;;;;;-7.16;100.00;93895.22;2088851;28;20025;-83
2022/03/01 04:40:08;;;;;;;12.65;8.15;;;;;;;-7.24;100.00;93890.69;2087820;28;20103;-81
2022/03/01 04:41:09;;;;;;;11.63;7.65;;;;;;;-7.23;100.00;93899.25;2094751;28;20558;-82
2022/03/01 04:42:10;;;;;;;11.65;8.13;;;;;;;-7.32;100.00;93890.56;2095128;28;20500;-81
2022/03/01 04:43:11;;;;;;;9.98;7.30;;;;;;;-7.21;100.00;93889.34;2103929;28;20438;-81
2022/03/01 04:44:12;;;;;;;10.02;7.28;;;;;;;-7.26;100.00;93885.00;2097373;28;20013;-83
2022/03/01 04:45:13;;;;;;;11.77;8.23;;;;;;;-7.37;100.00;93889.59;2105891;28;20462;-81
2022/03/01 04:46:18;;;;;;;9.98;7.07;;;;;;;-7.39;100.00;93893.53;2097269;28;20048;-81